createdAt,value
2019-05-12T00:00:15.102Z,0.00
2019-05-12T00:01:15.117Z,0.00
2019-05-12T00:02:15.066Z,0.00
2019-05-12T00:03:15.138Z,0.00
2019-05-12T00:04:15.045Z,0.00
2019-05-12T00:05:15.076Z,0.00
2019-05-12T00:06:15.026Z,0.00
2019-05-12T00:07:15.066Z,0.00
2019-05-12T00:08:15.014Z,0.00
2019-05-12T00:09:15.078Z,0.00
2019-05-12T00:10:15.000Z,0.00
2019-05-12T00:11:15.085Z,0.00
2019-05-12T00:12:14.963Z,0.00
2019-05-12T00:13:14.998Z,0.00
2019-05-12T00:14:14.936Z,0.00
2019-05-12T00:15:15.043Z,0.00
2019-05-12T00:16:14.919Z,0.00
2019-05-12T00:17:14.922Z,0.00
2019-05-12T00:18:14.895Z,0.00
2019-05-12T00:19:14.937Z,0.00
2019-05-12T00:20:14.888Z,0.00
2019-05-12T00:21:14.953Z,0.00
2019-05-12T00:22:14.857Z,0.00
2019-05-12T00:23:24.994Z,0.00
2019-05-12T00:24:15.828Z,0.00
2019-05-12T00:25:20.334Z,0.00
2019-05-12T00:26:14.810Z,0.00
2019-05-12T00:28:14.790Z,0.00
2019-05-12T00:29:14.807Z,0.00
2019-05-12T00:30:14.781Z,0.00
2019-05-12T00:31:14.813Z,0.00
2019-05-12T00:32:14.751Z,0.00
2019-05-12T00:33:17.986Z,0.00
2019-05-12T00:34:14.727Z,0.00
2019-05-12T00:35:14.769Z,0.00
2019-05-12T00:36:14.702Z,0.00
2019-05-12T00:37:14.754Z,0.00
2019-05-12T00:38:14.683Z,0.00
2019-05-12T00:39:14.766Z,0.00
2019-05-12T00:40:14.682Z,0.00
2019-05-12T00:41:14.679Z,0.00
2019-05-12T00:42:14.638Z,0.00
2019-05-12T00:43:14.694Z,0.00
2019-05-12T00:44:14.616Z,0.00
2019-05-12T00:45:14.734Z,0.00
2019-05-12T00:46:14.600Z,0.00
2019-05-12T00:47:14.616Z,0.00
2019-05-12T00:48:14.572Z,0.00
2019-05-12T00:49:14.632Z,0.00
2019-05-12T00:50:14.569Z,0.00
2019-05-12T00:51:14.645Z,0.00
2019-05-12T00:52:14.529Z,0.00
2019-05-12T00:53:14.556Z,0.00
2019-05-12T00:54:14.509Z,0.00
2019-05-12T00:55:14.601Z,0.00
2019-05-12T00:56:14.486Z,0.00
2019-05-12T00:57:14.588Z,0.00
2019-05-12T00:58:14.468Z,0.00
2019-05-12T00:59:14.497Z,0.00
2019-05-12T01:00:14.458Z,0.00
2019-05-12T01:01:14.507Z,0.00
2019-05-12T01:02:14.425Z,0.00
2019-05-12T01:03:14.522Z,0.00
2019-05-12T01:04:14.410Z,0.00
2019-05-12T01:05:14.771Z,0.00
2019-05-12T01:06:14.380Z,0.00
2019-05-12T01:07:14.447Z,0.00
2019-05-12T01:08:14.365Z,0.00
2019-05-12T01:09:14.463Z,0.00
2019-05-12T01:10:14.345Z,0.00
2019-05-12T01:11:14.404Z,0.00
2019-05-12T01:12:14.316Z,0.00
2019-05-12T01:13:14.391Z,0.00
2019-05-12T01:14:14.296Z,0.00
2019-05-12T01:15:14.398Z,0.00
2019-05-12T01:16:14.291Z,0.00
2019-05-12T01:17:14.324Z,0.00
2019-05-12T01:18:14.252Z,0.00
2019-05-12T01:19:14.332Z,0.00
2019-05-12T01:20:14.232Z,0.00
2019-05-12T01:21:14.267Z,0.00
2019-05-12T01:22:14.208Z,0.00
2019-05-12T01:23:14.251Z,0.00
2019-05-12T01:24:14.188Z,0.00
2019-05-12T01:25:14.271Z,0.00
2019-05-12T01:26:14.179Z,0.00
2019-05-12T01:27:14.179Z,0.00
2019-05-12T01:28:14.144Z,0.00
2019-05-12T01:29:14.192Z,0.00
2019-05-12T01:30:14.123Z,0.00
2019-05-12T01:31:14.234Z,0.00
2019-05-12T01:32:14.107Z,0.00
2019-05-12T01:33:14.116Z,0.00
2019-05-12T01:34:14.080Z,0.00
2019-05-12T01:35:14.139Z,0.00
2019-05-12T01:36:14.076Z,0.00
2019-05-12T01:37:14.144Z,0.00
2019-05-12T01:38:14.043Z,0.00
2019-05-12T01:39:14.056Z,0.00
2019-05-12T01:40:14.014Z,0.00
2019-05-12T01:41:14.102Z,0.00
2019-05-12T01:42:13.994Z,0.00
2019-05-12T01:43:14.103Z,0.00
2019-05-12T01:44:13.986Z,0.00
2019-05-12T01:45:13.989Z,0.00
2019-05-12T01:46:13.974Z,0.00
2019-05-12T01:47:14.004Z,0.00
2019-05-12T01:48:13.937Z,0.00
2019-05-12T01:49:14.023Z,0.00
2019-05-12T01:50:13.916Z,0.00
2019-05-12T01:51:13.960Z,0.00
2019-05-12T01:52:13.886Z,0.00
2019-05-12T01:53:13.941Z,0.00
2019-05-12T01:54:15.059Z,0.00
2019-05-12T01:55:13.962Z,0.00
2019-05-12T01:56:13.855Z,0.00
2019-05-12T01:57:19.331Z,0.00
2019-05-12T01:58:13.822Z,0.00
2019-05-12T01:59:15.931Z,0.00
2019-05-12T02:00:13.803Z,0.00
2019-05-12T02:01:21.884Z,0.00
2019-05-12T02:02:13.800Z,0.00
2019-05-12T02:03:13.809Z,0.00
2019-05-12T02:04:13.757Z,0.00
2019-05-12T02:05:20.384Z,0.00
2019-05-12T02:06:13.741Z,0.00
2019-05-12T02:07:13.763Z,0.00
2019-05-12T02:08:13.716Z,0.00
2019-05-12T02:09:13.745Z,0.00
2019-05-12T02:10:13.693Z,0.00
2019-05-12T02:11:13.763Z,0.00
2019-05-12T02:12:13.694Z,0.00
2019-05-12T02:13:13.777Z,0.00
2019-05-12T02:14:13.651Z,0.00
2019-05-12T02:15:13.684Z,0.00
2019-05-12T02:16:13.630Z,0.00
2019-05-12T02:17:13.730Z,0.00
2019-05-12T02:18:13.615Z,0.00
2019-05-12T02:19:13.711Z,0.00
2019-05-12T02:20:13.586Z,0.00
2019-05-12T02:21:13.634Z,0.00
2019-05-12T02:22:13.587Z,0.00
2019-05-12T02:23:13.646Z,0.00
2019-05-12T02:24:24.317Z,0.00
2019-05-12T02:25:14.532Z,0.00
2019-05-12T02:26:13.558Z,0.00
2019-05-12T02:27:13.528Z,0.00
2019-05-12T02:28:13.576Z,0.00
2019-05-12T02:29:13.491Z,0.00
2019-05-12T02:30:13.590Z,0.00
2019-05-12T02:31:13.471Z,0.00
2019-05-12T02:32:13.537Z,0.00
2019-05-12T02:33:15.970Z,0.00
2019-05-12T02:34:15.648Z,0.00
2019-05-12T02:35:16.111Z,0.00
2019-05-12T02:36:15.048Z,0.00
2019-05-12T02:37:15.369Z,0.00
2019-05-12T02:38:14.545Z,0.00
2019-05-12T02:39:15.067Z,0.00
2019-05-12T02:40:15.149Z,0.00
2019-05-12T02:41:15.499Z,0.00
2019-05-12T02:42:15.633Z,0.00
2019-05-12T02:43:15.350Z,0.00
2019-05-12T02:44:14.923Z,0.00
2019-05-12T02:45:15.362Z,0.00
2019-05-12T02:46:15.895Z,0.00
2019-05-12T02:47:16.012Z,0.00
2019-05-12T02:48:14.455Z,0.00
2019-05-12T02:49:15.627Z,0.00
2019-05-12T02:50:14.547Z,0.00
2019-05-12T02:51:15.550Z,0.00
2019-05-12T02:52:15.515Z,0.00
2019-05-12T02:53:14.431Z,0.00
2019-05-12T02:54:14.471Z,0.00
2019-05-12T02:55:15.028Z,0.00
2019-05-12T02:56:15.153Z,0.00
2019-05-12T02:57:14.307Z,4.00
2019-05-12T02:58:15.304Z,4.00
2019-05-12T02:59:15.432Z,4.00
2019-05-12T03:00:16.059Z,0.00
2019-05-12T03:01:15.306Z,0.00
2019-05-12T03:02:14.235Z,4.00
2019-05-12T03:03:14.580Z,4.00
2019-05-12T03:04:14.507Z,4.00
2019-05-12T03:05:14.845Z,4.00
2019-05-12T03:06:15.186Z,4.00
2019-05-12T03:07:15.279Z,8.00
2019-05-12T03:08:15.329Z,8.00
2019-05-12T03:09:15.083Z,8.00
2019-05-12T03:10:14.528Z,12.00
2019-05-12T03:11:14.855Z,12.00
2019-05-12T03:12:14.424Z,12.00
2019-05-12T03:13:14.882Z,16.00
2019-05-12T03:14:15.636Z,16.00
2019-05-12T03:15:15.196Z,20.00
2019-05-12T03:16:14.973Z,24.00
2019-05-12T03:17:15.343Z,28.00
2019-05-12T03:18:14.705Z,32.00
2019-05-12T03:19:14.958Z,32.00
2019-05-12T03:20:15.389Z,36.00
2019-05-12T03:21:15.287Z,44.00
2019-05-12T03:22:14.162Z,48.00
2019-05-12T03:23:15.414Z,56.00
2019-05-12T03:24:17.372Z,64.00
2019-05-12T03:25:20.990Z,68.00
2019-05-12T03:26:15.465Z,80.00
2019-05-12T03:27:14.597Z,88.00
2019-05-12T03:28:15.883Z,100.00
2019-05-12T03:29:14.837Z,108.00
2019-05-12T03:30:18.995Z,124.00
2019-05-12T03:31:22.308Z,136.00
2019-05-12T03:32:17.743Z,152.00
2019-05-12T03:33:19.007Z,168.00
2019-05-12T03:34:18.536Z,184.00
2019-05-12T03:35:20.893Z,204.00
2019-05-12T03:36:17.940Z,220.00
2019-05-12T03:37:17.830Z,244.00
2019-05-12T03:38:14.891Z,260.00
2019-05-12T03:39:15.164Z,284.00
2019-05-12T03:40:14.458Z,308.00
2019-05-12T03:41:14.669Z,332.00
2019-05-12T03:42:14.540Z,356.00
2019-05-12T03:43:14.631Z,384.00
2019-05-12T03:44:15.141Z,408.00
2019-05-12T03:45:15.035Z,436.00
2019-05-12T03:46:15.161Z,464.00
2019-05-12T03:47:14.451Z,496.00
2019-05-12T03:48:14.886Z,528.00
2019-05-12T03:49:15.326Z,556.00
2019-05-12T03:50:14.744Z,588.00
2019-05-12T03:51:15.434Z,620.00
2019-05-12T03:52:15.235Z,652.00
2019-05-12T03:53:15.722Z,688.00
2019-05-12T03:54:15.292Z,720.00
2019-05-12T03:55:30.749Z,756.00
2019-05-12T03:56:15.075Z,792.00
2019-05-12T03:57:14.986Z,824.00
2019-05-12T03:58:15.253Z,864.00
2019-05-12T03:59:14.925Z,900.00
2019-05-12T04:00:15.622Z,936.00
2019-05-12T04:01:15.001Z,976.00
2019-05-12T04:02:15.091Z,1012.00
2019-05-12T04:03:15.296Z,1048.00
2019-05-12T04:04:15.221Z,1088.00
2019-05-12T04:05:15.444Z,1128.00
2019-05-12T04:06:15.481Z,1164.00
2019-05-12T04:07:15.053Z,1204.00
2019-05-12T04:08:15.528Z,1240.00
2019-05-12T04:09:15.175Z,1276.00
2019-05-12T04:10:15.261Z,1316.00
2019-05-12T04:11:14.529Z,1356.00
2019-05-12T04:12:14.774Z,1392.00
2019-05-12T04:13:15.131Z,1424.00
2019-05-12T04:14:14.662Z,1460.00
2019-05-12T04:15:15.106Z,1492.00
2019-05-12T04:16:12.366Z,1528.00
2019-05-12T04:17:14.982Z,1564.00
2019-05-12T04:18:15.520Z,1596.00
2019-05-12T04:19:14.648Z,1628.00
2019-05-12T04:20:15.167Z,1664.00
2019-05-12T04:21:15.249Z,1700.00
2019-05-12T04:22:15.139Z,1740.00
2019-05-12T04:23:14.948Z,1776.00
2019-05-12T04:24:14.294Z,1812.00
2019-05-12T04:25:14.600Z,1852.00
2019-05-12T04:26:16.793Z,1892.00
2019-05-12T04:27:15.101Z,1924.00
2019-05-12T04:28:14.747Z,1964.00
2019-05-12T04:29:15.300Z,2000.00
2019-05-12T04:30:14.428Z,2040.00
2019-05-12T04:31:15.260Z,2080.00
2019-05-12T04:32:14.405Z,2136.00
2019-05-12T04:33:15.172Z,2180.00
2019-05-12T04:34:17.882Z,2248.00
2019-05-12T04:35:14.840Z,2288.00
2019-05-12T04:36:14.826Z,2340.00
2019-05-12T04:37:14.698Z,2380.00
2019-05-12T04:38:14.844Z,2444.00
2019-05-12T04:39:14.753Z,2536.00
2019-05-12T04:40:14.846Z,2856.00
2019-05-12T04:41:14.536Z,3284.00
2019-05-12T04:42:14.872Z,3288.00
2019-05-12T04:43:14.554Z,3656.00
2019-05-12T04:44:15.282Z,3696.00
2019-05-12T04:45:15.254Z,3704.00
2019-05-12T04:46:14.464Z,3776.00
2019-05-12T04:47:14.597Z,4000.00
2019-05-12T04:48:15.529Z,4124.00
2019-05-12T04:49:15.679Z,4244.00
2019-05-12T04:50:15.277Z,4340.00
2019-05-12T04:51:15.162Z,4440.00
2019-05-12T04:52:15.302Z,4512.00
2019-05-12T04:53:14.374Z,4572.00
2019-05-12T04:54:14.873Z,4652.00
2019-05-12T04:55:14.690Z,4732.00
2019-05-12T04:56:19.796Z,4808.00
2019-05-12T04:57:14.979Z,4884.00
2019-05-12T04:58:15.222Z,4936.00
2019-05-12T04:59:15.344Z,5000.00
2019-05-12T05:00:15.380Z,5056.00
2019-05-12T05:01:15.157Z,5076.00
2019-05-12T05:02:15.104Z,5084.00
2019-05-12T05:03:14.204Z,5096.00
2019-05-12T05:04:11.905Z,5072.00
2019-05-12T05:05:14.484Z,5072.00
2019-05-12T05:06:14.583Z,5068.00
2019-05-12T05:07:14.794Z,5064.00
2019-05-12T05:08:20.173Z,4976.00
2019-05-12T05:09:14.457Z,4940.00
2019-05-12T05:10:14.255Z,4996.00
2019-05-12T05:11:14.514Z,5132.00
2019-05-12T05:12:14.088Z,5232.00
2019-05-12T05:13:11.731Z,5484.00
2019-05-12T05:14:14.243Z,5960.00
2019-05-12T05:15:14.398Z,6100.00
2019-05-12T05:16:14.403Z,5968.00
2019-05-12T05:17:11.689Z,5808.00
2019-05-12T05:18:13.330Z,5640.00
2019-05-12T05:19:13.312Z,5508.00
2019-05-12T05:20:13.582Z,5496.00
2019-05-12T05:21:13.711Z,5496.00
2019-05-12T05:22:13.657Z,5492.00
2019-05-12T05:23:13.919Z,5516.00
2019-05-12T05:24:14.038Z,5568.00
2019-05-12T05:25:11.615Z,5616.00
2019-05-12T05:26:22.199Z,5640.00
2019-05-12T05:27:13.302Z,5688.00
2019-05-12T05:28:11.628Z,5776.00
2019-05-12T05:29:13.560Z,5872.00
2019-05-12T05:30:13.805Z,5988.00
2019-05-12T05:31:13.888Z,6200.00
2019-05-12T05:32:13.938Z,6568.00
2019-05-12T05:33:11.517Z,7104.00
2019-05-12T05:34:11.564Z,7472.00
2019-05-12T05:35:13.255Z,7692.00
2019-05-12T05:36:15.288Z,7716.00
2019-05-12T05:37:14.515Z,7820.00
2019-05-12T05:38:19.229Z,8008.00
2019-05-12T05:39:13.926Z,7992.00
2019-05-12T05:40:13.895Z,8100.00
2019-05-12T05:41:13.409Z,8632.00
2019-05-12T05:42:13.506Z,8856.00
2019-05-12T05:43:12.957Z,8560.00
2019-05-12T05:44:13.887Z,5304.00
2019-05-12T05:45:21.356Z,4400.00
2019-05-12T05:46:13.809Z,7280.00
2019-05-12T05:47:13.758Z,7668.00
2019-05-12T05:48:13.500Z,7488.00
2019-05-12T05:49:13.329Z,7392.00
2019-05-12T05:50:13.392Z,7384.00
2019-05-12T05:51:13.755Z,7320.00
2019-05-12T05:52:13.629Z,7344.00
2019-05-12T05:53:20.303Z,7380.00
2019-05-12T05:54:13.609Z,7400.00
2019-05-12T05:55:18.112Z,7440.00
2019-05-12T05:56:14.252Z,7532.00
2019-05-12T05:57:20.053Z,7636.00
2019-05-12T05:58:12.236Z,7652.00
2019-05-12T05:59:11.330Z,7596.00
2019-05-12T06:00:17.294Z,7604.00
2019-05-12T06:01:13.753Z,7636.00
2019-05-12T06:02:13.764Z,7660.00
2019-05-12T06:03:14.903Z,7720.00
2019-05-12T06:04:14.065Z,7744.00
2019-05-12T06:05:11.269Z,7756.00
2019-05-12T06:06:14.640Z,7776.00
2019-05-12T06:07:11.176Z,7772.00
2019-05-12T06:08:18.658Z,7752.00
2019-05-12T06:09:14.156Z,7756.00
2019-05-12T06:10:11.198Z,7736.00
2019-05-12T06:11:14.691Z,7736.00
2019-05-12T06:12:13.397Z,7700.00
2019-05-12T06:13:11.115Z,7668.00
2019-05-12T06:14:12.804Z,7620.00
2019-05-12T06:15:13.404Z,7596.00
2019-05-12T06:16:19.852Z,7600.00
2019-05-12T06:17:14.486Z,7632.00
2019-05-12T06:18:13.407Z,7656.00
2019-05-12T06:19:11.001Z,7644.00
2019-05-12T06:20:13.301Z,7652.00
2019-05-12T06:21:10.993Z,7704.00
2019-05-12T06:22:15.068Z,7744.00
2019-05-12T06:23:14.524Z,7780.00
2019-05-12T06:24:17.881Z,7824.00
2019-05-12T06:25:15.704Z,7832.00
2019-05-12T06:26:11.031Z,7888.00
2019-05-12T06:27:18.652Z,7940.00
2019-05-12T06:28:11.903Z,7952.00
2019-05-12T06:29:11.415Z,7992.00
2019-05-12T06:30:14.570Z,8004.00
2019-05-12T06:31:10.963Z,8000.00
2019-05-12T06:32:11.145Z,8000.00
2019-05-12T06:33:10.950Z,8020.00
2019-05-12T06:34:15.337Z,8044.00
2019-05-12T06:35:11.827Z,8060.00
2019-05-12T06:36:22.278Z,8072.00
2019-05-12T06:37:16.578Z,8100.00
2019-05-12T06:38:19.889Z,8092.00
2019-05-12T06:39:19.097Z,8100.00
2019-05-12T06:40:13.988Z,8124.00
2019-05-12T06:41:12.707Z,8152.00
2019-05-12T06:42:15.353Z,8176.00
2019-05-12T06:43:13.951Z,8260.00
2019-05-12T06:44:14.902Z,8288.00
2019-05-12T06:45:13.971Z,8260.00
2019-05-12T06:46:11.728Z,8284.00
2019-05-12T06:47:11.709Z,8308.00
2019-05-12T06:48:10.740Z,8272.00
2019-05-12T06:49:15.374Z,8260.00
2019-05-12T06:50:14.317Z,8260.00
2019-05-12T06:51:15.462Z,8252.00
2019-05-12T06:52:11.735Z,8264.00
2019-05-12T06:53:10.627Z,8276.00
2019-05-12T06:54:12.676Z,8272.00
2019-05-12T06:55:10.608Z,8336.00
2019-05-12T06:56:15.284Z,8560.00
2019-05-12T06:57:22.275Z,9284.00
2019-05-12T06:58:13.755Z,10076.00
2019-05-12T06:59:12.338Z,10020.00
2019-05-12T07:00:10.551Z,9460.00
2019-05-12T07:01:16.710Z,9044.00
2019-05-12T07:02:13.717Z,8752.00
2019-05-12T07:03:10.536Z,8564.00
2019-05-12T07:04:10.518Z,8456.00
2019-05-12T07:05:10.550Z,8408.00
2019-05-12T07:06:17.923Z,8356.00
2019-05-12T07:07:11.493Z,8312.00
2019-05-12T07:08:10.570Z,8320.00
2019-05-12T07:10:13.130Z,8332.00
2019-05-12T07:11:14.103Z,8404.00
2019-05-12T07:12:10.526Z,8500.00
2019-05-12T07:13:14.797Z,8600.00
2019-05-12T07:14:18.844Z,8608.00
2019-05-12T07:15:11.431Z,7980.00
2019-05-12T07:16:16.623Z,6652.00
2019-05-12T07:17:11.377Z,7148.00
2019-05-12T07:18:10.451Z,6600.00
2019-05-12T07:19:17.299Z,8948.00
2019-05-12T07:20:11.331Z,6720.00
2019-05-12T07:21:19.825Z,9028.00
2019-05-12T07:22:19.975Z,5592.00
2019-05-12T07:23:11.301Z,8944.00
2019-05-12T07:24:34.148Z,9268.00
2019-05-12T07:25:10.280Z,9188.00
2019-05-12T07:26:14.106Z,6248.00
2019-05-12T07:27:11.267Z,5484.00
2019-05-12T07:28:10.300Z,5788.00
2019-05-12T07:29:10.232Z,9728.00
2019-05-12T07:30:10.311Z,10396.00
2019-05-12T07:31:10.215Z,10820.00
2019-05-12T07:32:16.594Z,11532.00
2019-05-12T07:33:11.204Z,12352.00
2019-05-12T07:34:10.184Z,10252.00
2019-05-12T07:35:10.165Z,9664.00
2019-05-12T07:36:10.251Z,11648.00
2019-05-12T07:37:10.151Z,13292.00
2019-05-12T07:38:12.147Z,11160.00
2019-05-12T07:39:13.442Z,14688.00
2019-05-12T07:40:10.176Z,11724.00
2019-05-12T07:41:10.942Z,10564.00
2019-05-12T07:42:10.193Z,9760.00
2019-05-12T07:43:15.454Z,9108.00
2019-05-12T07:44:11.065Z,12132.00
2019-05-12T07:45:11.423Z,8536.00
2019-05-12T07:46:13.226Z,8416.00
2019-05-12T07:47:10.124Z,8240.00
2019-05-12T07:48:10.573Z,8204.00
2019-05-12T07:49:10.035Z,8376.00
2019-05-12T07:50:15.442Z,8692.00
2019-05-12T07:51:10.988Z,8808.00
2019-05-12T07:52:11.082Z,8616.00
2019-05-12T07:53:09.980Z,8760.00
2019-05-12T07:54:10.071Z,8808.00
2019-05-12T07:55:09.944Z,9056.00
2019-05-12T07:56:09.987Z,12984.00
2019-05-12T07:57:12.489Z,13728.00
2019-05-12T07:58:15.574Z,14400.00
2019-05-12T07:59:13.432Z,15072.00
2019-05-12T08:00:11.351Z,15936.00
2019-05-12T08:01:10.879Z,16160.00
2019-05-12T08:02:09.933Z,15392.00
2019-05-12T08:03:16.179Z,10712.00
2019-05-12T08:04:10.855Z,10448.00
2019-05-12T08:05:11.031Z,14592.00
2019-05-12T08:06:10.824Z,15136.00
2019-05-12T08:07:09.819Z,11972.00
2019-05-12T08:08:11.040Z,15200.00
2019-05-12T08:09:13.572Z,14912.00
2019-05-12T08:10:15.933Z,11668.00
2019-05-12T08:11:10.771Z,10132.00
2019-05-12T08:12:15.272Z,9804.00
2019-05-12T08:13:10.767Z,9372.00
2019-05-12T08:14:13.787Z,9652.00
2019-05-12T08:15:10.732Z,9748.00
2019-05-12T08:16:09.830Z,11180.00
2019-05-12T08:17:12.090Z,13536.00
2019-05-12T08:18:10.783Z,9640.00
2019-05-12T08:19:17.210Z,9516.00
2019-05-12T08:20:10.671Z,13288.00
2019-05-12T08:21:09.739Z,14912.00
2019-05-12T08:22:09.659Z,15616.00
2019-05-12T08:23:10.701Z,16480.00
2019-05-12T08:24:09.643Z,16480.00
2019-05-12T08:25:09.665Z,16512.00
2019-05-12T08:26:16.182Z,17056.00
2019-05-12T08:27:10.611Z,17344.00
2019-05-12T08:28:15.585Z,17056.00
2019-05-12T08:29:15.818Z,16544.00
2019-05-12T08:30:10.572Z,15808.00
2019-05-12T08:31:09.604Z,15232.00
2019-05-12T08:32:14.800Z,15424.00
2019-05-12T08:33:10.644Z,15424.00
2019-05-12T08:34:09.533Z,10576.00
2019-05-12T08:35:09.533Z,10304.00
2019-05-12T08:36:11.672Z,10676.00
2019-05-12T08:37:09.542Z,14176.00
2019-05-12T08:38:09.478Z,12616.00
2019-05-12T08:39:11.802Z,13412.00
2019-05-12T08:40:10.451Z,11708.00
2019-05-12T08:41:09.476Z,11620.00
2019-05-12T08:42:09.430Z,12388.00
2019-05-12T08:43:10.767Z,13132.00
2019-05-12T08:44:09.436Z,14144.00
2019-05-12T08:45:15.148Z,18624.00
2019-05-12T08:46:12.802Z,18240.00
2019-05-12T08:47:12.149Z,14816.00
2019-05-12T08:48:16.029Z,17056.00
2019-05-12T08:49:10.378Z,12976.00
2019-05-12T08:50:10.455Z,11664.00
2019-05-12T08:51:13.973Z,12020.00
2019-05-12T08:52:11.391Z,14024.00
2019-05-12T08:53:14.469Z,12596.00
2019-05-12T08:54:10.323Z,12564.00
2019-05-12T08:56:13.058Z,19360.00
2019-05-12T08:57:10.265Z,20128.00
2019-05-12T08:58:09.279Z,15168.00
2019-05-12T08:59:14.370Z,12228.00
2019-05-12T09:00:10.323Z,11824.00
2019-05-12T09:01:09.230Z,17024.00
2019-05-12T09:02:10.780Z,10628.00
2019-05-12T09:03:09.217Z,10032.00
2019-05-12T09:04:14.641Z,9640.00
2019-05-12T09:05:10.200Z,9220.00
2019-05-12T09:06:14.415Z,9148.00
2019-05-12T09:07:10.165Z,9496.00
2019-05-12T09:08:09.247Z,9980.00
2019-05-12T09:09:09.163Z,11124.00
2019-05-12T09:10:09.163Z,11940.00
2019-05-12T09:11:09.120Z,11760.00
2019-05-12T09:12:09.174Z,12152.00
2019-05-12T09:13:09.094Z,22016.00
2019-05-12T09:14:09.109Z,23264.00
2019-05-12T09:15:09.074Z,24640.00
2019-05-12T09:16:09.796Z,22016.00
2019-05-12T09:17:09.047Z,13868.00
2019-05-12T09:18:09.113Z,12328.00
2019-05-12T09:19:10.087Z,11012.00
2019-05-12T09:20:10.049Z,10172.00
2019-05-12T09:21:09.002Z,9580.00
2019-05-12T09:22:16.531Z,9224.00
2019-05-12T09:23:09.985Z,9184.00
2019-05-12T09:24:13.688Z,9428.00
2019-05-12T09:25:09.958Z,10044.00
2019-05-12T09:26:09.068Z,10896.00
2019-05-12T09:27:09.128Z,11768.00
2019-05-12T09:28:08.970Z,12540.00
2019-05-12T09:29:08.969Z,13384.00
2019-05-12T09:30:09.831Z,16096.00
2019-05-12T09:31:08.900Z,14360.00
2019-05-12T09:32:09.682Z,13808.00
2019-05-12T09:33:08.874Z,14164.00
2019-05-12T09:34:11.591Z,13472.00
2019-05-12T09:35:08.872Z,19040.00
2019-05-12T09:36:11.279Z,18112.00
2019-05-12T09:37:09.824Z,17408.00
2019-05-12T09:38:11.412Z,16800.00
2019-05-12T09:39:09.807Z,16128.00
2019-05-12T09:40:10.825Z,16928.00
2019-05-12T09:41:08.782Z,14168.00
2019-05-12T09:42:09.783Z,16416.00
2019-05-12T09:43:10.638Z,15712.00
2019-05-12T09:44:08.773Z,16768.00
2019-05-12T09:45:10.481Z,11812.00
2019-05-12T09:46:08.787Z,19136.00
2019-05-12T09:47:21.792Z,18176.00
2019-05-12T09:48:09.716Z,18208.00
2019-05-12T09:49:08.809Z,18368.00
2019-05-12T09:50:09.791Z,14376.00
2019-05-12T09:51:09.742Z,14052.00
2019-05-12T09:52:13.962Z,21856.00
2019-05-12T09:53:11.506Z,17120.00
2019-05-12T09:54:08.742Z,11248.00
2019-05-12T09:55:08.643Z,9560.00
2019-05-12T09:56:08.650Z,8744.00
2019-05-12T09:57:08.609Z,8232.00
2019-05-12T09:58:14.144Z,8004.00
2019-05-12T09:59:17.916Z,8028.00
2019-05-12T10:00:09.586Z,8244.00
2019-05-12T10:01:08.601Z,8556.00
2019-05-12T10:02:10.443Z,8792.00
2019-05-12T10:03:09.621Z,8704.00
2019-05-12T10:04:10.447Z,8772.00
2019-05-12T10:05:09.567Z,8936.00
2019-05-12T10:06:11.469Z,9072.00
2019-05-12T10:07:09.501Z,9204.00
2019-05-12T10:08:08.529Z,9364.00
2019-05-12T10:09:08.930Z,11608.00
2019-05-12T10:10:09.504Z,24832.00
2019-05-12T10:11:10.426Z,50208.00
2019-05-12T10:12:09.479Z,48800.00
2019-05-12T10:13:08.432Z,48608.00
2019-05-12T10:14:10.756Z,48992.00
2019-05-12T10:15:08.427Z,49024.00
2019-05-12T10:16:08.940Z,47424.00
2019-05-12T10:17:08.391Z,46272.00
2019-05-12T10:18:10.973Z,48416.00
2019-05-12T10:19:08.365Z,48352.00
2019-05-12T10:20:08.409Z,47936.00
2019-05-12T10:21:13.382Z,50848.00
2019-05-12T10:22:29.974Z,52064.00
2019-05-12T10:23:10.151Z,50208.00
2019-05-12T10:24:08.330Z,49760.00
2019-05-12T10:25:08.311Z,49472.00
2019-05-12T10:26:11.595Z,48384.00
2019-05-12T10:27:08.281Z,50208.00
2019-05-12T10:28:13.028Z,51296.00
2019-05-12T10:29:17.633Z,51136.00
2019-05-12T10:30:12.244Z,51936.00
2019-05-12T10:31:08.305Z,54304.00
2019-05-12T10:32:10.366Z,57408.00
2019-05-12T10:33:08.291Z,59264.00
2019-05-12T10:34:08.203Z,58784.00
2019-05-12T10:35:12.662Z,20864.00
2019-05-12T10:36:09.200Z,20192.00
2019-05-12T10:37:08.216Z,14248.00
2019-05-12T10:38:10.696Z,11472.00
2019-05-12T10:39:08.231Z,10056.00
2019-05-12T10:40:08.134Z,9108.00
2019-05-12T10:41:08.169Z,8512.00
2019-05-12T10:42:08.111Z,8268.00
2019-05-12T10:43:08.155Z,8172.00
2019-05-12T10:44:08.090Z,8220.00
2019-05-12T10:45:10.830Z,8324.00
2019-05-12T10:46:09.081Z,8536.00
2019-05-12T10:47:08.079Z,8812.00
2019-05-12T10:48:08.048Z,9120.00
2019-05-12T10:49:08.092Z,9468.00
2019-05-12T10:50:08.028Z,9784.00
2019-05-12T10:51:08.144Z,10208.00
2019-05-12T10:52:08.008Z,10704.00
2019-05-12T10:53:09.791Z,11328.00
2019-05-12T10:54:13.107Z,11916.00
2019-05-12T10:55:09.054Z,12488.00
2019-05-12T10:56:08.257Z,13032.00
2019-05-12T10:57:08.047Z,13732.00
2019-05-12T10:58:07.942Z,16160.00
2019-05-12T10:59:07.959Z,20096.00
2019-05-12T11:00:07.917Z,18304.00
2019-05-12T11:01:08.691Z,19808.00
2019-05-12T11:02:07.914Z,19776.00
2019-05-12T11:03:12.209Z,46400.00
2019-05-12T11:04:07.872Z,65024.00
2019-05-12T11:05:21.121Z,70208.00
2019-05-12T11:06:08.858Z,71520.00
2019-05-12T11:07:09.890Z,73248.00
2019-05-12T11:08:10.978Z,73856.00
2019-05-12T11:09:07.924Z,73216.00
2019-05-12T11:10:15.470Z,26752.00
2019-05-12T11:11:08.797Z,20928.00
2019-05-12T11:12:07.810Z,17248.00
2019-05-12T11:13:09.872Z,15312.00
2019-05-12T11:14:07.856Z,14628.00
2019-05-12T11:15:08.514Z,14232.00
2019-05-12T11:16:07.767Z,14280.00
2019-05-12T11:17:09.460Z,17344.00
2019-05-12T11:18:07.781Z,14168.00
2019-05-12T11:19:10.466Z,14236.00
2019-05-12T11:20:07.797Z,15172.00
2019-05-12T11:21:07.696Z,20672.00
2019-05-12T11:22:08.244Z,13696.00
2019-05-12T11:23:07.667Z,12300.00
2019-05-12T11:24:07.719Z,11488.00
2019-05-12T11:25:07.669Z,10788.00
2019-05-12T11:26:07.735Z,10256.00
2019-05-12T11:27:07.634Z,9944.00
2019-05-12T11:28:07.643Z,9916.00
2019-05-12T11:29:07.603Z,10080.00
2019-05-12T11:30:07.656Z,10360.00
2019-05-12T11:31:07.629Z,10516.00
2019-05-12T11:32:07.603Z,10696.00
2019-05-12T11:33:07.557Z,10940.00
2019-05-12T11:34:07.584Z,11280.00
2019-05-12T11:35:07.537Z,11744.00
2019-05-12T11:36:07.595Z,12244.00
2019-05-12T11:37:07.527Z,12820.00
2019-05-12T11:38:07.609Z,13368.00
2019-05-12T11:39:07.490Z,13840.00
2019-05-12T11:40:07.520Z,14344.00
2019-05-12T11:41:10.147Z,15540.00
2019-05-12T11:42:08.591Z,20640.00
2019-05-12T11:43:07.447Z,82944.00
2019-05-12T11:44:07.548Z,81344.00
2019-05-12T11:45:07.430Z,73792.00
2019-05-12T11:46:07.467Z,29536.00
2019-05-12T11:47:07.409Z,69536.00
2019-05-12T11:48:10.133Z,23488.00
2019-05-12T11:49:09.504Z,22112.00
2019-05-12T11:50:14.347Z,18144.00
2019-05-12T11:51:07.358Z,18496.00
2019-05-12T11:52:18.440Z,20288.00
2019-05-12T11:53:07.365Z,26496.00
2019-05-12T11:54:10.841Z,64480.00
2019-05-12T11:55:07.314Z,87840.00
2019-05-12T11:56:07.913Z,44160.00
2019-05-12T11:57:07.298Z,75776.00
2019-05-12T11:58:11.373Z,52256.00
2019-05-12T11:59:07.274Z,50976.00
2019-05-12T12:00:07.351Z,63744.00
2019-05-12T12:01:08.363Z,22016.00
2019-05-12T12:02:07.264Z,61184.00
2019-05-12T12:03:12.681Z,81216.00
2019-05-12T12:04:08.299Z,74912.00
2019-05-12T12:05:07.253Z,72512.00
2019-05-12T12:06:07.292Z,73088.00
2019-05-12T12:07:07.187Z,75904.00
2019-05-12T12:08:07.242Z,79520.00
2019-05-12T12:09:09.074Z,81248.00
2019-05-12T12:10:08.239Z,14412.00
2019-05-12T12:11:10.520Z,15160.00
2019-05-12T12:12:08.201Z,18144.00
2019-05-12T12:13:07.165Z,18976.00
2019-05-12T12:14:10.488Z,33760.00
2019-05-12T12:15:07.146Z,19136.00
2019-05-12T12:16:11.137Z,15520.00
2019-05-12T12:17:07.159Z,13796.00
2019-05-12T12:18:13.097Z,12368.00
2019-05-12T12:19:08.124Z,11488.00
2019-05-12T12:20:07.046Z,11224.00